sensor_id;sensor_type;location;lat;lon;timestamp;pressure;altitude;pressure_sealevel;temperature;humidity
65173;BME280;51758;52.218;5.172;2022-09-27T00:01:24;99588.63;;;10.22;100.00
65173;BME280;51758;52.218;5.172;2022-09-27T00:03:52;99577.41;;;10.22;100.00
65173;BME280;51758;52.218;5.172;2022-09-27T00:06:21;99585.19;;;10.28;100.00
65173;BME280;51758;52.218;5.172;2022-09-27T00:08:50;99584.19;;;10.29;100.00
65173;BME280;51758;52.218;5.172;2022-09-27T00:11:19;99583.19;;;10.30;100.00
65173;BME280;51758;52.218;5.172;2022-09-27T00:13:49;99579.38;;;10.26;100.00
65173;BME280;51758;52.218;5.172;2022-09-27T00:16:18;99577.59;;;10.20;100.00
65173;BME280;51758;52.218;5.172;2022-09-27T00:18:45;99580.59;;;10.17;100.00
65173;BME280;51758;52.218;5.172;2022-09-27T00:21:13;99586.22;;;10.01;100.00
65173;BME280;51758;52.218;5.172;2022-09-27T00:23:40;99587.44;;;10.05;100.00
65173;BME280;51758;52.218;5.172;2022-09-27T00:26:11;99577.88;;;9.86;100.00
65173;BME280;51758;52.218;5.172;2022-09-27T00:28:39;99583.25;;;9.91;100.00
65173;BME280;51758;52.218;5.172;2022-09-27T00:31:11;99578.88;;;9.85;100.00
65173;BME280;51758;52.218;5.172;2022-09-27T00:33:42;99583.88;;;9.86;100.00
65173;BME280;51758;52.218;5.172;2022-09-27T00:36:10;99573.25;;;9.88;100.00
65173;BME280;51758;52.218;5.172;2022-09-27T00:38:38;99570.41;;;9.89;100.00
65173;BME280;51758;52.218;5.172;2022-09-27T00:41:07;99574.63;;;9.90;100.00
65173;BME280;51758;52.218;5.172;2022-09-27T00:43:42;99581.69;;;9.83;100.00
65173;BME280;51758;52.218;5.172;2022-09-27T00:46:10;99581.88;;;9.82;100.00
65173;BME280;51758;52.218;5.172;2022-09-27T00:48:39;99585.50;;;9.74;100.00
65173;BME280;51758;52.218;5.172;2022-09-27T00:51:09;99583.47;;;9.76;100.00
65173;BME280;51758;52.218;5.172;2022-09-27T00:53:36;99595.09;;;9.80;100.00
65173;BME280;51758;52.218;5.172;2022-09-27T00:56:08;99595.50;;;9.77;100.00
65173;BME280;51758;52.218;5.172;2022-09-27T00:58:37;99524.22;;;9.32;100.00
65173;BME280;51758;52.218;5.172;2022-09-27T01:01:06;99589.50;;;9.63;100.00
65173;BME280;51758;52.218;5.172;2022-09-27T01:03:36;99583.91;;;9.66;100.00
65173;BME280;51758;52.218;5.172;2022-09-27T01:06:08;99587.50;;;9.52;100.00
65173;BME280;51758;52.218;5.172;2022-09-27T01:08:36;99594.72;;;9.50;100.00
65173;BME280;51758;52.218;5.172;2022-09-27T01:11:09;99593.13;;;9.23;100.00
65173;BME280;51758;52.218;5.172;2022-09-27T01:13:42;99592.53;;;9.27;100.00
65173;BME280;51758;52.218;5.172;2022-09-27T01:16:12;99596.56;;;9.37;100.00
65173;BME280;51758;52.218;5.172;2022-09-27T01:18:43;99597.13;;;9.39;100.00
65173;BME280;51758;52.218;5.172;2022-09-27T01:29:48;99611.38;;;9.62;100.00
65173;BME280;51758;52.218;5.172;2022-09-27T01:32:21;99619.19;;;9.62;100.00
65173;BME280;51758;52.218;5.172;2022-09-27T01:34:55;99609.34;;;9.51;100.00
65173;BME280;51758;52.218;5.172;2022-09-27T01:37:32;99603.13;;;9.52;100.00
65173;BME280;51758;52.218;5.172;2022-09-27T01:40:04;99599.72;;;9.52;100.00
65173;BME280;51758;52.218;5.172;2022-09-27T01:42:36;99597.13;;;9.58;100.00
65173;BME280;51758;52.218;5.172;2022-09-27T01:45:06;99593.34;;;9.61;100.00
65173;BME280;51758;52.218;5.172;2022-09-27T01:47:38;99597.94;;;9.52;100.00
65173;BME280;51758;52.218;5.172;2022-09-27T01:50:08;99595.75;;;9.49;100.00
65173;BME280;51758;52.218;5.172;2022-09-27T01:52:38;99598.53;;;9.41;100.00
65173;BME280;51758;52.218;5.172;2022-09-27T01:55:09;99599.97;;;9.37;100.00
65173;BME280;51758;52.218;5.172;2022-09-27T01:57:38;99601.13;;;9.41;100.00
65173;BME280;51758;52.218;5.172;2022-09-27T02:00:07;99599.53;;;9.40;100.00
65173;BME280;51758;52.218;5.172;2022-09-27T02:02:37;99591.53;;;9.42;100.00
65173;BME280;51758;52.218;5.172;2022-09-27T02:05:07;99590.75;;;9.48;100.00
65173;BME280;51758;52.218;5.172;2022-09-27T02:07:37;99594.31;;;9.27;100.00
65173;BME280;51758;52.218;5.172;2022-09-27T02:10:07;99591.91;;;9.39;100.00
65173;BME280;51758;52.218;5.172;2022-09-27T02:12:38;99593.53;;;9.33;100.00
65173;BME280;51758;52.218;5.172;2022-09-27T02:15:07;99589.72;;;9.29;100.00
65173;BME280;51758;52.218;5.172;2022-09-27T02:17:37;99593.94;;;9.30;100.00
65173;BME280;51758;52.218;5.172;2022-09-27T02:20:11;99590.31;;;9.31;100.00
65173;BME280;51758;52.218;5.172;2022-09-27T02:22:41;99592.13;;;9.30;100.00
65173;BME280;51758;52.218;5.172;2022-09-27T02:25:12;99594.50;;;9.25;100.00
65173;BME280;51758;52.218;5.172;2022-09-27T02:27:44;99596.94;;;9.27;100.00
65173;BME280;51758;52.218;5.172;2022-09-27T02:30:16;99591.72;;;9.33;100.00
65173;BME280;51758;52.218;5.172;2022-09-27T02:32:43;99594.31;;;9.40;100.00
65173;BME280;51758;52.218;5.172;2022-09-27T02:35:12;99595.75;;;9.36;100.00
65173;BME280;51758;52.218;5.172;2022-09-27T02:37:41;99589.72;;;9.29;100.00
65173;BME280;51758;52.218;5.172;2022-09-27T02:40:09;99590.34;;;9.24;100.00
65173;BME280;51758;52.218;5.172;2022-09-27T02:42:36;99588.09;;;9.15;100.00
65173;BME280;51758;52.218;5.172;2022-09-27T02:45:05;99590.50;;;9.16;100.00
65173;BME280;51758;52.218;5.172;2022-09-27T02:50:43;99590.06;;;8.99;100.00
65173;BME280;51758;52.218;5.172;2022-09-27T02:53:14;99592.94;;;9.11;100.00
65173;BME280;51758;52.218;5.172;2022-09-27T02:55:45;99585.88;;;9.05;100.00
65173;BME280;51758;52.218;5.172;2022-09-27T02:58:17;99581.69;;;9.17;100.00
65173;BME280;51758;52.218;5.172;2022-09-27T03:00:47;99587.31;;;9.08;100.00
65173;BME280;51758;52.218;5.172;2022-09-27T03:03:19;99585.50;;;9.08;100.00
65173;BME280;51758;52.218;5.172;2022-09-27T03:05:50;99587.69;;;9.05;100.00
65173;BME280;51758;52.218;5.172;2022-09-27T03:08:19;99586.31;;;9.09;100.00
65173;BME280;51758;52.218;5.172;2022-09-27T03:10:46;99585.50;;;9.08;100.00
65173;BME280;51758;52.218;5.172;2022-09-27T03:13:13;99576.88;;;9.08;100.00
65173;BME280;51758;52.218;5.172;2022-09-27T03:15:41;99581.72;;;9.11;100.00
65173;BME280;51758;52.218;5.172;2022-09-27T03:18:08;99573.09;;;9.10;100.00
65173;BME280;51758;52.218;5.172;2022-09-27T03:20:36;99579.47;;;9.14;100.00
65173;BME280;51758;52.218;5.172;2022-09-27T03:23:04;99590.72;;;9.08;100.00
65173;BME280;51758;52.218;5.172;2022-09-27T03:25:32;99588.09;;;9.08;100.00
65173;BME280;51758;52.218;5.172;2022-09-27T03:27:59;99596.91;;;9.07;100.00
65173;BME280;51758;52.218;5.172;2022-09-27T03:30:27;99589.91;;;9.08;100.00
65173;BME280;51758;52.218;5.172;2022-09-27T03:32:55;99587.91;;;9.10;100.00
65173;BME280;51758;52.218;5.172;2022-09-27T03:35:22;99582.50;;;9.11;100.00
65173;BME280;51758;52.218;5.172;2022-09-27T03:37:50;99587.50;;;9.13;100.00
65173;BME280;51758;52.218;5.172;2022-09-27T03:40:18;99592.72;;;9.19;100.00
65173;BME280;51758;52.218;5.172;2022-09-27T03:42:46;99587.31;;;9.27;100.00
65173;BME280;51758;52.218;5.172;2022-09-27T03:45:15;99592.34;;;9.22;100.00
65173;BME280;51758;52.218;5.172;2022-09-27T03:47:43;99597.72;;;9.21;100.00
65173;BME280;51758;52.218;5.172;2022-09-27T03:50:10;99603.13;;;9.19;100.00
65173;BME280;51758;52.218;5.172;2022-09-27T03:52:37;99601.94;;;9.22;100.00
65173;BME280;51758;52.218;5.172;2022-09-27T03:55:05;99607.53;;;9.25;100.00
65173;BME280;51758;52.218;5.172;2022-09-27T03:57:34;99616.38;;;9.31;100.00
65173;BME280;51758;52.218;5.172;2022-09-27T04:00:02;99601.75;;;9.30;100.00
65173;BME280;51758;52.218;5.172;2022-09-27T04:02:30;99601.97;;;9.35;100.00
65173;BME280;51758;52.218;5.172;2022-09-27T04:04:57;99596.31;;;9.18;100.00
65173;BME280;51758;52.218;5.172;2022-09-27T04:07:25;99599.50;;;9.07;100.00
65173;BME280;51758;52.218;5.172;2022-09-27T04:09:53;99592.13;;;9.11;100.00
65173;BME280;51758;52.218;5.172;2022-09-27T04:12:20;99589.13;;;9.20;100.00
65173;BME280;51758;52.218;5.172;2022-09-27T04:14:49;99584.50;;;9.29;100.00
65173;BME280;51758;52.218;5.172;2022-09-27T04:17:16;99597.72;;;9.14;100.00
65173;BME280;51758;52.218;5.172;2022-09-27T04:19:45;99587.31;;;9.21;100.00
65173;BME280;51758;52.218;5.172;2022-09-27T04:22:12;99599.94;;;9.11;100.00
65173;BME280;51758;52.218;5.172;2022-09-27T04:24:40;99590.72;;;9.08;100.00
65173;BME280;51758;52.218;5.172;2022-09-27T04:27:08;99594.28;;;9.01;100.00
65173;BME280;51758;52.218;5.172;2022-09-27T04:29:35;99598.09;;;9.05;100.00
65173;BME280;51758;52.218;5.172;2022-09-27T04:32:04;99604.69;;;9.01;100.00
65173;BME280;51758;52.218;5.172;2022-09-27T04:34:31;99601.50;;;8.98;100.00
65173;BME280;51758;52.218;5.172;2022-09-27T04:37:16;99606.50;;;9.00;100.00
65173;BME280;51758;52.218;5.172;2022-09-27T04:39:44;99603.91;;;9.07;100.00
65173;BME280;51758;52.218;5.172;2022-09-27T04:42:11;99608.69;;;8.90;100.00
65173;BME280;51758;52.218;5.172;2022-09-27T04:44:39;99610.09;;;8.92;100.00
65173;BME280;51758;52.218;5.172;2022-09-27T04:47:08;99603.91;;;8.93;100.00
65173;BME280;51758;52.218;5.172;2022-09-27T04:49:35;99603.47;;;8.90;100.00
65173;BME280;51758;52.218;5.172;2022-09-27T04:52:04;99600.69;;;8.91;100.00
65173;BME280;51758;52.218;5.172;2022-09-27T04:54:31;99610.13;;;8.99;100.00
65173;BME280;51758;52.218;5.172;2022-09-27T04:56:59;99594.28;;;8.94;100.00
65173;BME280;51758;52.218;5.172;2022-09-27T04:59:29;99597.66;;;8.88;100.00
65173;BME280;51758;52.218;5.172;2022-09-27T05:01:56;99595.88;;;8.88;100.00
65173;BME280;51758;52.218;5.172;2022-09-27T05:04:27;99601.28;;;8.93;100.00
65173;BME280;51758;52.218;5.172;2022-09-27T05:06:55;99609.31;;;9.05;100.00
65173;BME280;51758;52.218;5.172;2022-09-27T05:09:22;99601.72;;;9.04;100.00
65173;BME280;51758;52.218;5.172;2022-09-27T05:11:50;99603.13;;;9.13;100.00
65173;BME280;51758;52.218;5.172;2022-09-27T05:14:17;99612.13;;;9.04;100.00
65173;BME280;51758;52.218;5.172;2022-09-27T05:16:45;99603.31;;;9.05;100.00
65173;BME280;51758;52.218;5.172;2022-09-27T05:19:13;99613.50;;;8.99;100.00
65173;BME280;51758;52.218;5.172;2022-09-27T05:21:42;99605.84;;;8.78;100.00
65173;BME280;51758;52.218;5.172;2022-09-27T05:24:09;99605.81;;;8.65;100.00
65173;BME280;51758;52.218;5.172;2022-09-27T05:26:37;99606.78;;;8.57;100.00
65173;BME280;51758;52.218;5.172;2022-09-27T05:29:04;99609.25;;;8.72;100.00
65173;BME280;51758;52.218;5.172;2022-09-27T05:31:32;99610.19;;;8.58;100.00
65173;BME280;51758;52.218;5.172;2022-09-27T05:33:59;99620.75;;;8.43;100.00
65173;BME280;51758;52.218;5.172;2022-09-27T05:36:27;99617.16;;;8.44;100.00
65173;BME280;51758;52.218;5.172;2022-09-27T05:38:57;99616.16;;;8.45;100.00
65173;BME280;51758;52.218;5.172;2022-09-27T05:41:24;99614.19;;;8.54;100.00
65173;BME280;51758;52.218;5.172;2022-09-27T05:43:52;99610.59;;;8.55;100.00
65173;BME280;51758;52.218;5.172;2022-09-27T05:46:19;99617.81;;;8.59;100.00
65173;BME280;51758;52.218;5.172;2022-09-27T05:48:47;99611.00;;;8.65;100.00
65173;BME280;51758;52.218;5.172;2022-09-27T05:51:14;99623.50;;;8.83;100.00
65173;BME280;51758;52.218;5.172;2022-09-27T05:53:42;99626.06;;;8.76;100.00
65173;BME280;51758;52.218;5.172;2022-09-27T05:56:10;99626.66;;;8.78;100.00
65173;BME280;51758;52.218;5.172;2022-09-27T05:58:38;99640.66;;;8.71;100.00
65173;BME280;51758;52.218;5.172;2022-09-27T06:01:05;99642.22;;;8.65;100.00
65173;BME280;51758;52.218;5.172;2022-09-27T06:03:33;99647.88;;;8.75;100.00
65173;BME280;51758;52.218;5.172;2022-09-27T06:06:01;99634.84;;;8.75;100.00
65173;BME280;51758;52.218;5.172;2022-09-27T06:08:31;99636.28;;;8.78;100.00
65173;BME280;51758;52.218;5.172;2022-09-27T06:11:00;99635.69;;;8.82;100.00
65173;BME280;51758;52.218;5.172;2022-09-27T06:13:31;99630.91;;;8.92;100.00
65173;BME280;51758;52.218;5.172;2022-09-27T06:15:59;99635.97;;;9.07;100.00
65173;BME280;51758;52.218;5.172;2022-09-27T06:18:27;99639.16;;;8.96;100.00
65173;BME280;51758;52.218;5.172;2022-09-27T06:20:54;99638.75;;;8.99;100.00
65173;BME280;51758;52.218;5.172;2022-09-27T06:23:24;99634.75;;;8.96;100.00
65173;BME280;51758;52.218;5.172;2022-09-27T06:25:52;99641.56;;;8.97;100.00
65173;BME280;51758;52.218;5.172;2022-09-27T06:28:21;99638.38;;;9.09;100.00
65173;BME280;51758;52.218;5.172;2022-09-27T06:30:50;99651.44;;;9.22;100.00
65173;BME280;51758;52.218;5.172;2022-09-27T06:33:18;99664.03;;;9.12;100.00
65173;BME280;51758;52.218;5.172;2022-09-27T06:35:46;99660.66;;;9.24;100.00
65173;BME280;51758;52.218;5.172;2022-09-27T06:38:15;99656.47;;;9.37;100.00
65173;BME280;51758;52.218;5.172;2022-09-27T06:40:43;99656.03;;;9.40;100.00
65173;BME280;51758;52.218;5.172;2022-09-27T06:43:12;99654.25;;;9.47;100.00
65173;BME280;51758;52.218;5.172;2022-09-27T06:45:40;99652.44;;;9.54;100.00
65173;BME280;51758;52.218;5.172;2022-09-27T06:48:10;99654.06;;;9.61;100.00
65173;BME280;51758;52.218;5.172;2022-09-27T06:50:39;99648.66;;;9.56;100.00
65173;BME280;51758;52.218;5.172;2022-09-27T06:53:07;99650.84;;;9.53;100.00
65173;BME280;51758;52.218;5.172;2022-09-27T06:55:35;99649.03;;;9.53;100.00
65173;BME280;51758;52.218;5.172;2022-09-27T06:58:03;99653.06;;;9.62;100.00
65173;BME280;51758;52.218;5.172;2022-09-27T07:00:48;99652.47;;;9.60;100.00
65173;BME280;51758;52.218;5.172;2022-09-27T07:03:19;99654.06;;;9.68;100.00
65173;BME280;51758;52.218;5.172;2022-09-27T07:05:54;99654.66;;;9.63;100.00
65173;BME280;51758;52.218;5.172;2022-09-27T07:08:23;99668.50;;;9.70;100.00
65173;BME280;51758;52.218;5.172;2022-09-27T07:10:51;99671.09;;;9.84;100.00
65173;BME280;51758;52.218;5.172;2022-09-27T07:13:20;99672.50;;;9.73;100.00
65173;BME280;51758;52.218;5.172;2022-09-27T07:15:48;99672.09;;;9.83;100.00
65173;BME280;51758;52.218;5.172;2022-09-27T07:18:15;99667.09;;;9.81;100.00
65173;BME280;51758;52.218;5.172;2022-09-27T07:20:44;99669.72;;;9.88;100.00
65173;BME280;51758;52.218;5.172;2022-09-27T07:23:11;99664.28;;;9.89;100.00
65173;BME280;51758;52.218;5.172;2022-09-27T07:25:40;99668.09;;;9.93;100.00
65173;BME280;51758;52.218;5.172;2022-09-27T07:28:15;99660.06;;;9.82;100.00
65173;BME280;51758;52.218;5.172;2022-09-27T07:30:47;99671.09;;;9.97;100.00
65173;BME280;51758;52.218;5.172;2022-09-27T07:33:15;99670.69;;;9.80;100.00
65173;BME280;51758;52.218;5.172;2022-09-27T07:35:43;99671.28;;;9.76;100.00
65173;BME280;51758;52.218;5.172;2022-09-27T07:38:11;99668.47;;;9.90;100.00
65173;BME280;51758;52.218;5.172;2022-09-27T07:40:39;99672.72;;;9.85;100.00
65173;BME280;51758;52.218;5.172;2022-09-27T07:43:07;99677.72;;;9.93;100.00
65173;BME280;51758;52.218;5.172;2022-09-27T07:45:35;99673.09;;;9.95;100.00
65173;BME280;51758;52.218;5.172;2022-09-27T07:48:03;99600.94;;;9.29;100.00
65173;BME280;51758;52.218;5.172;2022-09-27T07:50:31;99683.13;;;9.58;100.00
65173;BME280;51758;52.218;5.172;2022-09-27T07:53:00;99681.31;;;9.59;100.00
65173;BME280;51758;52.218;5.172;2022-09-27T07:55:27;99684.13;;;9.57;100.00
65173;BME280;51758;52.218;5.172;2022-09-27T07:58:00;99683.31;;;9.63;100.00
65173;BME280;51758;52.218;5.172;2022-09-27T08:00:28;99677.53;;;9.75;100.00
65173;BME280;51758;52.218;5.172;2022-09-27T08:02:55;99688.75;;;9.95;100.00
65173;BME280;51758;52.218;5.172;2022-09-27T08:05:23;99687.72;;;10.16;100.00
65173;BME280;51758;52.218;5.172;2022-09-27T08:07:53;99696.13;;;10.18;100.00
65173;BME280;51758;52.218;5.172;2022-09-27T08:10:21;99687.91;;;10.40;100.00
65173;BME280;51758;52.218;5.172;2022-09-27T08:12:50;99697.13;;;10.43;100.00
65173;BME280;51758;52.218;5.172;2022-09-27T08:15:17;99704.16;;;10.43;100.00
65173;BME280;51758;52.218;5.172;2022-09-27T08:17:45;99721.00;;;10.40;100.00
65173;BME280;51758;52.218;5.172;2022-09-27T08:20:12;99720.16;;;10.66;100.00
65173;BME280;51758;52.218;5.172;2022-09-27T08:22:40;99720.09;;;10.79;100.00
65173;BME280;51758;52.218;5.172;2022-09-27T08:25:08;99721.91;;;10.85;100.00
65173;BME280;51758;52.218;5.172;2022-09-27T08:27:37;99720.38;;;10.58;100.00
65173;BME280;51758;52.218;5.172;2022-09-27T08:30:05;99722.91;;;10.77;100.00
65173;BME280;51758;52.218;5.172;2022-09-27T08:32:33;99716.28;;;10.88;100.00
65173;BME280;51758;52.218;5.172;2022-09-27T08:35:00;99711.63;;;10.90;100.00
65173;BME280;51758;52.218;5.172;2022-09-27T08:37:27;99714.28;;;10.84;100.00
65173;BME280;51758;52.218;5.172;2022-09-27T08:39:55;99710.41;;;10.99;100.00
65173;BME280;51758;52.218;5.172;2022-09-27T08:42:24;99701.56;;;11.00;100.00
65173;BME280;51758;52.218;5.172;2022-09-27T08:44:57;99715.94;;;10.71;100.00
65173;BME280;51758;52.218;5.172;2022-09-27T08:47:30;99715.88;;;10.78;100.00
65173;BME280;51758;52.218;5.172;2022-09-27T08:50:01;99721.41;;;10.44;100.00
65173;BME280;51758;52.218;5.172;2022-09-27T08:52:31;99725.59;;;10.51;100.00
65173;BME280;51758;52.218;5.172;2022-09-27T08:55:00;99721.25;;;10.32;100.00
65173;BME280;51758;52.218;5.172;2022-09-27T08:57:29;99726.25;;;10.33;100.00
65173;BME280;51758;52.218;5.172;2022-09-27T09:00:04;99725.88;;;10.23;100.00
65173;BME280;51758;52.218;5.172;2022-09-27T09:02:32;99722.84;;;10.20;100.00
65173;BME280;51758;52.218;5.172;2022-09-27T09:05:02;99723.06;;;10.25;100.00
65173;BME280;51758;52.218;5.172;2022-09-27T09:07:36;99730.88;;;10.38;100.00
65173;BME280;51758;52.218;5.172;2022-09-27T09:10:12;99726.63;;;10.44;100.00
65173;BME280;51758;52.218;5.172;2022-09-27T09:13:06;99727.47;;;10.37;100.00
65173;BME280;51758;52.218;5.172;2022-09-27T09:15:41;99728.22;;;10.51;100.00
65173;BME280;51758;52.218;5.172;2022-09-27T09:18:26;99728.38;;;10.69;100.00
65173;BME280;51758;52.218;5.172;2022-09-27T09:20:57;99733.34;;;10.84;100.00
65173;BME280;51758;52.218;5.172;2022-09-27T09:23:34;99735.66;;;10.48;100.00
65173;BME280;51758;52.218;5.172;2022-09-27T09:26:08;99667.69;;;9.90;100.00
65173;BME280;51758;52.218;5.172;2022-09-27T09:28:41;99719.81;;;10.03;100.00
65173;BME280;51758;52.218;5.172;2022-09-27T09:31:18;99746.94;;;10.35;100.00
65173;BME280;51758;52.218;5.172;2022-09-27T09:33:49;99747.72;;;10.29;100.00
65173;BME280;51758;52.218;5.172;2022-09-27T09:36:21;99751.72;;;10.05;100.00
65173;BME280;51758;52.218;5.172;2022-09-27T09:38:49;99752.94;;;10.09;100.00
65173;BME280;51758;52.218;5.172;2022-09-27T09:41:19;99758.19;;;10.22;100.00
65173;BME280;51758;52.218;5.172;2022-09-27T09:43:49;99762.97;;;10.19;100.00
65173;BME280;51758;52.218;5.172;2022-09-27T09:46:20;99757.16;;;10.30;100.00
65173;BME280;51758;52.218;5.172;2022-09-27T09:48:50;99759.19;;;10.21;100.00
65173;BME280;51758;52.218;5.172;2022-09-27T09:51:22;99756.75;;;10.20;100.00
65173;BME280;51758;52.218;5.172;2022-09-27T09:53:52;99762.19;;;10.31;100.00
65173;BME280;51758;52.218;5.172;2022-09-27T09:56:22;99759.56;;;10.31;100.00
65173;BME280;51758;52.218;5.172;2022-09-27T09:58:52;99762.56;;;10.09;100.00
65173;BME280;51758;52.218;5.172;2022-09-27T10:01:23;99761.56;;;10.10;100.00
65173;BME280;51758;52.218;5.172;2022-09-27T10:03:52;99750.13;;;10.04;100.00
65173;BME280;51758;52.218;5.172;2022-09-27T10:06:20;99748.72;;;9.95;100.00
65173;BME280;51758;52.218;5.172;2022-09-27T10:08:48;99739.31;;;10.20;100.00
65173;BME280;51758;52.218;5.172;2022-09-27T10:11:20;99744.91;;;10.17;100.00
65173;BME280;51758;52.218;5.172;2022-09-27T10:13:49;99741.50;;;10.10;100.00
65173;BME280;51758;52.218;5.172;2022-09-27T10:16:18;99740.88;;;10.15;100.00
65173;BME280;51758;52.218;5.172;2022-09-27T10:18:47;99732.69;;;10.24;100.00
65173;BME280;51758;52.218;5.172;2022-09-27T10:21:17;99733.25;;;10.39;100.00
65173;BME280;51758;52.218;5.172;2022-09-27T10:24:05;99727.19;;;10.65;100.00
65173;BME280;51758;52.218;5.172;2022-09-27T10:26:39;99728.34;;;10.83;100.00
65173;BME280;51758;52.218;5.172;2022-09-27T10:29:15;99729.97;;;10.70;100.00
65173;BME280;51758;52.218;5.172;2022-09-27T10:31:44;99727.56;;;10.69;100.00
65173;BME280;51758;52.218;5.172;2022-09-27T10:34:19;99733.03;;;10.61;100.00
65173;BME280;51758;52.218;5.172;2022-09-27T10:36:48;99742.88;;;10.39;100.00
65173;BME280;51758;52.218;5.172;2022-09-27T10:39:27;99752.31;;;10.47;100.00
65173;BME280;51758;52.218;5.172;2022-09-27T10:41:54;99748.91;;;10.26;100.00
65173;BME280;51758;52.218;5.172;2022-09-27T10:44:23;99751.31;;;10.08;100.00
65173;BME280;51758;52.218;5.172;2022-09-27T10:46:52;99746.09;;;10.01;100.00
65173;BME280;51758;52.218;5.172;2022-09-27T10:49:23;99740.28;;;9.86;100.00
65173;BME280;51758;52.218;5.172;2022-09-27T10:51:51;99745.50;;;9.93;100.00
65173;BME280;51758;52.218;5.172;2022-09-27T10:54:20;99741.72;;;10.22;100.00
65173;BME280;51758;52.218;5.172;2022-09-27T10:56:57;99751.09;;;9.90;100.00
65173;BME280;51758;52.218;5.172;2022-09-27T10:59:25;99744.69;;;9.73;100.00
65173;BME280;51758;52.218;5.172;2022-09-27T11:01:55;99745.88;;;9.90;100.00
65173;BME280;51758;52.218;5.172;2022-09-27T11:04:27;99747.91;;;9.88;100.00
65173;BME280;51758;52.218;5.172;2022-09-27T11:07:05;99756.28;;;9.63;100.00
65173;BME280;51758;52.218;5.172;2022-09-27T11:09:43;99757.72;;;9.73;100.00
65173;BME280;51758;52.218;5.172;2022-09-27T11:12:11;99763.16;;;9.84;100.00
65173;BME280;51758;52.218;5.172;2022-09-27T11:14:38;99758.34;;;9.75;100.00
65173;BME280;51758;52.218;5.172;2022-09-27T11:17:12;99752.72;;;9.91;100.00
65173;BME280;51758;52.218;5.172;2022-09-27T11:19:54;99757.34;;;9.95;100.00
65173;BME280;51758;52.218;5.172;2022-09-27T11:22:32;99753.91;;;10.01;100.00
65173;BME280;51758;52.218;5.172;2022-09-27T11:25:09;99748.69;;;9.88;100.00
65173;BME280;51758;52.218;5.172;2022-09-27T11:27:44;99739.88;;;9.96;100.00
65173;BME280;51758;52.218;5.172;2022-09-27T11:30:18;99665.47;;;9.47;100.00
65173;BME280;51758;52.218;5.172;2022-09-27T11:32:50;99746.31;;;9.93;100.00
65173;BME280;51758;52.218;5.172;2022-09-27T11:35:28;99750.91;;;10.04;100.00
65173;BME280;51758;52.218;5.172;2022-09-27T11:37:59;99737.28;;;10.09;100.00
65173;BME280;51758;52.218;5.172;2022-09-27T11:40:34;99732.66;;;9.85;100.00
65173;BME280;51758;52.218;5.172;2022-09-27T11:43:08;99742.28;;;9.84;100.00
65173;BME280;51758;52.218;5.172;2022-09-27T11:45:42;99730.25;;;10.03;100.00
65173;BME280;51758;52.218;5.172;2022-09-27T11:48:38;99733.47;;;10.38;100.00
65173;BME280;51758;52.218;5.172;2022-09-27T11:51:13;99731.84;;;10.17;100.00
65173;BME280;51758;52.218;5.172;2022-09-27T11:53:45;99740.50;;;9.85;100.00
65173;BME280;51758;52.218;5.172;2022-09-27T11:56:21;99758.31;;;10.01;100.00
65173;BME280;51758;52.218;5.172;2022-09-27T11:58:56;99756.94;;;9.92;100.00
65173;BME280;51758;52.218;5.172;2022-09-27T12:01:28;99759.34;;;10.00;100.00
65173;BME280;51758;52.218;5.172;2022-09-27T12:06:48;99763.91;;;9.58;100.00
65173;BME280;51758;52.218;5.172;2022-09-27T12:09:19;99770.69;;;9.53;100.00
65173;BME280;51758;52.218;5.172;2022-09-27T12:11:49;99760.84;;;9.42;100.00
65173;BME280;51758;52.218;5.172;2022-09-27T12:14:19;99768.66;;;9.35;100.00
65173;BME280;51758;52.218;5.172;2022-09-27T12:16:52;99759.84;;;9.36;100.00
65173;BME280;51758;52.218;5.172;2022-09-27T12:19:21;99765.69;;;9.51;100.00
65173;BME280;51758;52.218;5.172;2022-09-27T12:21:51;99764.06;;;9.37;100.00
65173;BME280;51758;52.218;5.172;2022-09-27T12:24:21;99766.78;;;9.16;100.00
65173;BME280;51758;52.218;5.172;2022-09-27T12:26:49;99766.16;;;9.14;100.00
65173;BME280;51758;52.218;5.172;2022-09-27T12:29:19;99753.00;;;9.28;100.00
65173;BME280;51758;52.218;5.172;2022-09-27T12:31:50;99759.47;;;9.46;100.00
65173;BME280;51758;52.218;5.172;2022-09-27T12:34:21;99760.09;;;9.48;100.00
65173;BME280;51758;52.218;5.172;2022-09-27T12:36:52;99759.09;;;9.55;100.00
65173;BME280;51758;52.218;5.172;2022-09-27T12:39:24;99759.84;;;9.36;100.00
65173;BME280;51758;52.218;5.172;2022-09-27T12:41:54;99753.81;;;9.29;100.00
65173;BME280;51758;52.218;5.172;2022-09-27T12:44:27;99744.97;;;9.23;100.00
65173;BME280;51758;52.218;5.172;2022-09-27T12:47:00;99751.19;;;9.22;100.00
65173;BME280;51758;52.218;5.172;2022-09-27T12:49:35;99756.25;;;9.37;100.00
65173;BME280;51758;52.218;5.172;2022-09-27T12:52:10;99755.81;;;9.33;100.00
65173;BME280;51758;52.218;5.172;2022-09-27T12:54:57;99745.44;;;9.47;100.00
65173;BME280;51758;52.218;5.172;2022-09-27T12:57:29;99745.47;;;9.66;100.00
65173;BME280;51758;52.218;5.172;2022-09-27T13:00:04;99742.09;;;9.73;100.00
65173;BME280;51758;52.218;5.172;2022-09-27T13:02:38;99739.28;;;9.94;100.00
65173;BME280;51758;52.218;5.172;2022-09-27T13:08:21;99738.66;;;9.79;100.00
65173;BME280;51758;52.218;5.172;2022-09-27T13:10:53;99737.03;;;9.58;100.00
65173;BME280;51758;52.218;5.172;2022-09-27T13:13:25;99733.84;;;9.62;100.00
65173;BME280;51758;52.218;5.172;2022-09-27T13:16:01;99730.84;;;9.79;100.00
65173;BME280;51758;52.218;5.172;2022-09-27T13:18:31;99722.06;;;10.19;100.00
65173;BME280;51758;52.218;5.172;2022-09-27T13:21:03;99722.44;;;10.36;100.00
65173;BME280;51758;52.218;5.172;2022-09-27T13:29:10;99644.38;;;10.34;100.00
65173;BME280;51758;52.218;5.172;2022-09-27T13:32:02;99716.59;;;11.05;100.00
65173;BME280;51758;52.218;5.172;2022-09-27T13:34:37;99705.16;;;12.62;100.00
65173;BME280;51758;52.218;5.172;2022-09-27T13:37:26;99706.09;;;13.87;100.00